createdAt,value
2019-02-17T00:01:17.752Z,99.90
2019-02-17T00:03:46.627Z,99.90
2019-02-17T00:06:15.620Z,99.90
2019-02-17T00:08:44.342Z,99.90
2019-02-17T00:11:13.311Z,99.90
2019-02-17T00:13:42.031Z,99.90
2019-02-17T00:16:10.872Z,99.90
2019-02-17T00:18:40.824Z,99.90
2019-02-17T00:21:11.204Z,99.90
2019-02-17T00:23:40.156Z,99.90
2019-02-17T00:26:08.966Z,99.90
2019-02-17T00:28:37.778Z,99.90
2019-02-17T00:31:06.571Z,99.90
2019-02-17T00:33:35.592Z,99.90
2019-02-17T00:36:04.404Z,99.90
2019-02-17T00:38:33.351Z,99.90
2019-02-17T00:41:02.399Z,99.90
2019-02-17T00:43:31.233Z,99.90
2019-02-17T00:46:01.944Z,99.90
2019-02-17T00:48:30.750Z,99.90
2019-02-17T00:50:59.613Z,99.90
2019-02-17T00:53:28.551Z,99.90
2019-02-17T00:55:57.310Z,99.90
2019-02-17T00:58:26.076Z,99.90
2019-02-17T01:00:56.715Z,99.90
2019-02-17T01:03:25.758Z,99.90
2019-02-17T01:05:54.538Z,99.90
2019-02-17T01:08:23.323Z,99.90
2019-02-17T01:10:52.130Z,99.90
2019-02-17T01:13:20.947Z,99.90
2019-02-17T01:15:49.791Z,99.90
2019-02-17T01:18:18.755Z,99.90
2019-02-17T01:20:48.519Z,99.90
2019-02-17T01:23:17.347Z,99.90
2019-02-17T01:25:46.304Z,99.90
2019-02-17T01:28:15.639Z,99.90
2019-02-17T01:30:44.493Z,99.90
2019-02-17T01:33:13.851Z,99.90
2019-02-17T01:35:42.757Z,99.90
2019-02-17T01:38:11.565Z,99.90
2019-02-17T01:40:40.584Z,99.90
2019-02-17T01:43:09.441Z,99.90
2019-02-17T01:45:38.435Z,99.90
2019-02-17T01:48:07.176Z,99.90
2019-02-17T01:50:36.498Z,99.90
2019-02-17T01:53:05.296Z,99.90
2019-02-17T01:55:35.247Z,99.90
2019-02-17T01:58:04.048Z,99.90
2019-02-17T02:00:33.304Z,99.90
2019-02-17T02:03:02.889Z,99.90
2019-02-17T02:05:31.853Z,99.90
2019-02-17T02:08:00.887Z,99.90
2019-02-17T02:10:29.867Z,99.90
2019-02-17T02:12:58.667Z,99.90
2019-02-17T02:15:27.900Z,99.90
2019-02-17T02:17:57.007Z,99.90
2019-02-17T02:20:26.278Z,99.90
2019-02-17T02:22:55.087Z,99.90
2019-02-17T02:25:23.978Z,99.90
2019-02-17T02:27:53.012Z,99.90
2019-02-17T02:30:22.106Z,99.90
2019-02-17T02:32:51.176Z,99.90
2019-02-17T02:35:20.071Z,99.90
2019-02-17T02:37:48.925Z,99.90
2019-02-17T02:40:17.962Z,99.90
2019-02-17T02:42:47.064Z,99.90
2019-02-17T02:45:16.043Z,99.90
2019-02-17T02:47:45.083Z,99.90
2019-02-17T02:50:33.288Z,99.90
2019-02-17T02:53:02.102Z,99.90
2019-02-17T02:55:30.931Z,99.90
2019-02-17T02:57:59.754Z,99.90
2019-02-17T03:00:28.507Z,99.90
2019-02-17T03:02:57.266Z,99.90
2019-02-17T03:05:26.081Z,99.90
2019-02-17T03:07:54.878Z,99.90
2019-02-17T03:10:23.764Z,99.90
2019-02-17T03:12:52.558Z,99.90
2019-02-17T03:15:21.604Z,99.90
2019-02-17T03:17:50.511Z,99.90
2019-02-17T03:20:19.699Z,99.90
2019-02-17T03:22:48.495Z,99.90
2019-02-17T03:25:17.370Z,99.90
2019-02-17T03:27:46.217Z,99.90
2019-02-17T03:30:15.129Z,99.90
2019-02-17T03:32:43.989Z,99.90
2019-02-17T03:35:12.931Z,99.90
2019-02-17T03:37:41.771Z,99.90
2019-02-17T03:40:10.754Z,99.90
2019-02-17T03:42:39.543Z,99.90
2019-02-17T03:45:08.569Z,99.90
2019-02-17T03:47:37.648Z,99.90
2019-02-17T03:50:07.264Z,99.90
2019-02-17T03:52:36.042Z,99.90
2019-02-17T03:55:07.191Z,99.90
2019-02-17T03:57:36.042Z,99.90
2019-02-17T04:00:16.100Z,99.90
2019-02-17T04:02:36.115Z,99.90
2019-02-17T04:05:05.135Z,99.90
2019-02-17T04:07:34.091Z,99.90
2019-02-17T04:10:02.894Z,99.90
2019-02-17T04:12:31.808Z,99.90
2019-02-17T04:15:00.658Z,99.90
2019-02-17T04:17:29.422Z,99.90
2019-02-17T04:19:58.264Z,99.90
2019-02-17T04:22:27.728Z,99.90
2019-02-17T04:24:56.635Z,99.90
2019-02-17T04:27:25.465Z,99.90
2019-02-17T04:29:54.213Z,99.90
2019-02-17T04:32:23.247Z,99.90
2019-02-17T04:34:52.627Z,99.90
2019-02-17T04:37:21.680Z,99.90
2019-02-17T04:39:50.517Z,99.90
2019-02-17T04:42:19.515Z,99.90
2019-02-17T04:44:48.682Z,99.90
2019-02-17T04:47:17.477Z,99.90
2019-02-17T04:49:46.421Z,99.90
2019-02-17T04:52:15.232Z,99.90
2019-02-17T04:54:44.059Z,99.90
2019-02-17T04:57:13.109Z,99.90
2019-02-17T04:59:41.986Z,99.90
2019-02-17T05:02:10.972Z,99.90
2019-02-17T05:04:39.800Z,99.90
2019-02-17T05:07:08.752Z,99.90
2019-02-17T05:09:37.625Z,99.90
2019-02-17T05:12:06.876Z,99.90
2019-02-17T05:14:35.801Z,99.90
2019-02-17T05:17:04.579Z,99.90
2019-02-17T05:19:33.490Z,99.90
2019-02-17T05:22:02.472Z,99.90
2019-02-17T05:24:31.324Z,99.90
2019-02-17T05:27:00.200Z,99.90
2019-02-17T05:29:29.329Z,99.90
2019-02-17T05:31:58.242Z,99.90
2019-02-17T05:34:27.576Z,99.90
2019-02-17T05:36:56.287Z,99.90
2019-02-17T05:39:25.598Z,99.90
2019-02-17T05:41:54.847Z,99.90
2019-02-17T05:44:23.675Z,99.90
2019-02-17T05:46:52.555Z,99.90
2019-02-17T05:49:21.327Z,99.90
2019-02-17T05:51:50.056Z,99.90
2019-02-17T05:54:19.120Z,99.90
2019-02-17T05:56:48.303Z,99.90
2019-02-17T05:59:17.218Z,99.90
2019-02-17T06:01:46.338Z,99.90
2019-02-17T06:04:15.192Z,99.90
2019-02-17T06:06:43.911Z,99.90
2019-02-17T06:09:13.287Z,99.90
2019-02-17T06:11:42.603Z,99.90
2019-02-17T06:14:11.900Z,99.90
2019-02-17T06:16:40.761Z,99.90
2019-02-17T06:19:09.775Z,99.90
2019-02-17T06:21:38.632Z,99.90
2019-02-17T06:24:07.378Z,99.90
2019-02-17T06:26:36.244Z,99.90
2019-02-17T06:29:05.192Z,99.90
2019-02-17T06:31:34.128Z,99.90
2019-02-17T06:34:03.263Z,99.90
2019-02-17T06:36:32.183Z,99.90
2019-02-17T06:39:00.946Z,99.90
2019-02-17T06:41:29.820Z,99.90
2019-02-17T06:43:58.630Z,99.90
2019-02-17T06:46:31.667Z,99.90
2019-02-17T06:49:00.450Z,99.90
2019-02-17T06:51:29.293Z,99.90
2019-02-17T06:53:58.143Z,99.90
2019-02-17T06:56:37.639Z,99.90
2019-02-17T06:59:06.524Z,99.90
2019-02-17T07:01:35.426Z,99.90
2019-02-17T07:04:04.227Z,99.90
2019-02-17T07:06:37.076Z,99.90
2019-02-17T07:09:06.663Z,99.90
2019-02-17T07:11:36.190Z,99.90
2019-02-17T07:14:05.078Z,99.90
2019-02-17T07:16:33.901Z,99.90
2019-02-17T07:19:02.776Z,99.90
2019-02-17T07:21:35.615Z,99.90
2019-02-17T07:24:04.439Z,99.90
2019-02-17T07:26:33.292Z,99.90
2019-02-17T07:29:02.679Z,99.90
2019-02-17T07:31:35.057Z,99.90
2019-02-17T07:34:02.731Z,99.90
2019-02-17T07:36:31.634Z,99.90
2019-02-17T07:39:00.879Z,99.90
2019-02-17T07:41:29.713Z,99.90
2019-02-17T07:43:58.702Z,99.90
2019-02-17T07:46:27.671Z,99.90
2019-02-17T07:48:56.463Z,99.90
2019-02-17T07:51:25.259Z,99.90
2019-02-17T07:53:54.179Z,99.90
2019-02-17T07:56:23.171Z,99.90
2019-02-17T07:58:51.978Z,99.90
2019-02-17T08:01:20.943Z,99.90
2019-02-17T08:03:50.055Z,99.90
2019-02-17T08:06:19.399Z,99.90
2019-02-17T08:08:48.571Z,99.90
2019-02-17T08:11:17.511Z,99.90
2019-02-17T08:13:46.429Z,99.90
2019-02-17T08:16:15.392Z,99.90
2019-02-17T08:18:44.268Z,99.90
2019-02-17T08:21:13.515Z,99.90
2019-02-17T08:23:42.342Z,99.90
2019-02-17T08:26:11.267Z,99.90
2019-02-17T08:28:40.054Z,99.90
2019-02-17T08:31:10.679Z,99.90
2019-02-17T08:33:39.776Z,99.90
2019-02-17T08:36:09.009Z,99.90
2019-02-17T08:38:37.830Z,99.90
2019-02-17T08:41:06.685Z,99.90
2019-02-17T08:43:35.618Z,99.90
2019-02-17T08:46:04.407Z,99.90
2019-02-17T08:48:33.252Z,99.90
2019-02-17T08:51:02.055Z,99.90
2019-02-17T08:53:31.443Z,99.90
2019-02-17T08:56:00.215Z,99.90
2019-02-17T08:58:29.415Z,99.90
2019-02-17T09:00:58.507Z,99.90
2019-02-17T09:03:27.346Z,99.90
2019-02-17T09:05:56.188Z,99.90
2019-02-17T09:08:25.440Z,99.90
2019-02-17T09:10:54.791Z,99.90
2019-02-17T09:13:23.717Z,99.90
2019-02-17T09:15:52.526Z,99.90
2019-02-17T09:18:21.550Z,99.90
2019-02-17T09:20:50.351Z,99.90
2019-02-17T09:23:19.355Z,99.90
2019-02-17T09:25:48.392Z,99.90
2019-02-17T09:28:17.378Z,99.90
2019-02-17T09:30:46.399Z,99.90
2019-02-17T09:33:15.336Z,99.90
2019-02-17T09:35:44.116Z,99.90
2019-02-17T09:38:12.995Z,99.90
2019-02-17T09:40:41.912Z,99.90
2019-02-17T09:43:10.778Z,99.90
2019-02-17T09:45:39.935Z,99.90
2019-02-17T09:48:09.021Z,99.90
2019-02-17T09:50:38.192Z,99.90
2019-02-17T09:53:07.379Z,99.90
2019-02-17T09:55:36.535Z,99.90
2019-02-17T09:58:05.359Z,99.90
2019-02-17T10:00:34.584Z,99.90
2019-02-17T10:03:03.450Z,99.90
2019-02-17T10:05:32.242Z,99.90
2019-02-17T10:08:01.189Z,99.90
2019-02-17T10:10:30.348Z,99.90
2019-02-17T10:13:01.324Z,99.90
2019-02-17T10:15:30.436Z,99.90
2019-02-17T10:17:59.548Z,99.90
2019-02-17T10:20:28.344Z,99.90
2019-02-17T10:22:57.200Z,99.90
2019-02-17T10:25:26.159Z,99.90
2019-02-17T10:27:55.357Z,99.90
2019-02-17T10:30:24.083Z,99.90
2019-02-17T10:32:53.181Z,99.90
2019-02-17T10:35:22.170Z,99.90
2019-02-17T10:37:51.581Z,99.90
2019-02-17T10:40:20.430Z,99.90
2019-02-17T10:42:49.291Z,99.90
2019-02-17T10:45:18.360Z,99.90
2019-02-17T10:47:47.235Z,99.90
2019-02-17T10:50:16.119Z,99.90
2019-02-17T10:52:45.031Z,99.90
2019-02-17T10:55:14.184Z,99.90
2019-02-17T10:57:43.199Z,99.90
2019-02-17T11:00:13.709Z,99.90
2019-02-17T11:02:47.069Z,99.90
2019-02-17T11:05:13.560Z,99.60
2019-02-17T11:07:42.414Z,99.90
2019-02-17T11:10:11.632Z,99.90
2019-02-17T11:12:40.692Z,99.90
2019-02-17T11:15:11.736Z,99.90
2019-02-17T11:17:40.492Z,99.90
2019-02-17T11:20:09.688Z,99.90
2019-02-17T11:22:38.866Z,99.90
2019-02-17T11:25:07.871Z,99.60
2019-02-17T11:27:36.937Z,99.90
2019-02-17T11:30:07.453Z,99.90
2019-02-17T11:32:36.606Z,99.90
2019-02-17T11:35:05.882Z,99.00
2019-02-17T11:37:34.746Z,98.50
2019-02-17T11:40:03.943Z,97.30
2019-02-17T11:42:32.776Z,95.00
2019-02-17T11:45:01.578Z,97.50
2019-02-17T11:47:30.653Z,97.70
2019-02-17T11:49:59.535Z,98.50
2019-02-17T11:52:28.752Z,99.90
2019-02-17T11:54:57.682Z,94.90
2019-02-17T11:57:26.435Z,89.60
2019-02-17T11:59:55.248Z,93.30
2019-02-17T12:02:25.290Z,96.00
2019-02-17T12:04:54.359Z,98.40
2019-02-17T12:07:24.325Z,97.90
2019-02-17T12:09:53.880Z,99.20
2019-02-17T12:12:22.728Z,92.80
2019-02-17T12:14:51.708Z,95.00
2019-02-17T12:17:20.547Z,92.70
2019-02-17T12:19:50.008Z,90.20
2019-02-17T12:22:25.738Z,93.30
2019-02-17T12:25:13.958Z,90.50
2019-02-17T12:28:05.022Z,93.40
2019-02-17T12:30:33.914Z,94.80
2019-02-17T12:33:02.808Z,96.10
2019-02-17T12:35:32.136Z,94.50
2019-02-17T12:38:00.952Z,94.20
2019-02-17T12:40:30.396Z,93.00
2019-02-17T12:42:59.501Z,94.90
2019-02-17T12:45:28.536Z,94.50
2019-02-17T12:47:58.472Z,93.20
2019-02-17T12:50:27.563Z,85.70
2019-02-17T12:52:56.318Z,89.00
2019-02-17T12:55:26.198Z,89.90
2019-02-17T12:57:54.931Z,90.30
2019-02-17T13:00:24.062Z,93.10
2019-02-17T13:02:53.128Z,81.00
2019-02-17T13:05:22.065Z,78.80
2019-02-17T13:07:51.205Z,86.80
2019-02-17T13:10:20.264Z,83.00
2019-02-17T13:12:52.228Z,85.10
2019-02-17T13:15:21.217Z,86.20
2019-02-17T13:17:50.244Z,79.60
2019-02-17T13:20:19.191Z,81.80
2019-02-17T13:22:48.071Z,82.60
2019-02-17T13:25:17.018Z,81.50
2019-02-17T13:27:46.377Z,88.70
2019-02-17T13:30:17.968Z,90.00
2019-02-17T13:32:47.267Z,89.80
2019-02-17T13:35:16.481Z,80.90
2019-02-17T13:37:45.599Z,81.50
2019-02-17T13:40:14.552Z,88.50
2019-02-17T13:42:43.359Z,87.40
2019-02-17T13:45:13.235Z,85.00
2019-02-17T13:47:42.089Z,81.80
2019-02-17T13:50:12.431Z,87.50
2019-02-17T13:52:41.209Z,89.20
2019-02-17T13:55:10.775Z,85.00
2019-02-17T13:57:39.580Z,86.70
2019-02-17T14:00:11.507Z,90.40
2019-02-17T14:02:40.374Z,92.10
2019-02-17T14:05:09.247Z,94.80
2019-02-17T14:07:38.065Z,93.00
2019-02-17T14:10:08.455Z,92.80
2019-02-17T14:12:37.614Z,92.50
2019-02-17T14:15:09.056Z,83.50
2019-02-17T14:17:38.048Z,88.10
2019-02-17T14:20:08.063Z,91.30
2019-02-17T14:22:37.062Z,93.20
2019-02-17T14:25:06.100Z,93.40
2019-02-17T14:27:34.898Z,94.30
2019-02-17T14:30:04.031Z,94.20
2019-02-17T14:32:32.841Z,97.10
2019-02-17T14:35:02.054Z,96.10
2019-02-17T14:37:31.220Z,95.70
2019-02-17T14:40:00.314Z,96.50
2019-02-17T14:42:29.208Z,96.50
2019-02-17T14:44:58.109Z,99.00
2019-02-17T14:47:27.028Z,99.80
2019-02-17T14:49:55.989Z,99.90
2019-02-17T14:52:24.876Z,99.90
2019-02-17T14:54:54.315Z,99.80
2019-02-17T14:57:23.251Z,99.10
2019-02-17T14:59:52.242Z,99.90
2019-02-17T15:02:21.084Z,99.90
2019-02-17T15:04:49.899Z,99.90
2019-02-17T15:07:18.768Z,99.90
2019-02-17T15:09:47.752Z,99.90
2019-02-17T15:12:16.513Z,99.90
2019-02-17T15:14:45.275Z,99.90
2019-02-17T15:17:14.883Z,99.90
2019-02-17T15:19:44.155Z,99.90
2019-02-17T15:22:12.979Z,99.90
2019-02-17T15:24:42.946Z,99.90
2019-02-17T15:27:12.090Z,99.90
2019-02-17T15:29:40.936Z,99.90
2019-02-17T15:32:09.753Z,99.90
2019-02-17T15:34:38.632Z,99.90
2019-02-17T15:37:07.404Z,99.90
2019-02-17T15:39:36.340Z,99.90
2019-02-17T15:42:05.623Z,99.90
2019-02-17T15:44:34.855Z,99.90
2019-02-17T15:47:03.594Z,99.90
2019-02-17T15:49:32.390Z,99.90
2019-02-17T15:52:01.206Z,99.90
2019-02-17T15:54:30.081Z,99.90
2019-02-17T15:56:59.033Z,99.90
2019-02-17T15:59:27.842Z,99.90
2019-02-17T16:01:56.681Z,99.90
2019-02-17T16:04:28.614Z,99.90
2019-02-17T16:06:56.159Z,99.90
2019-02-17T16:09:25.110Z,99.90
2019-02-17T16:11:53.908Z,99.90
2019-02-17T16:14:22.790Z,99.90
2019-02-17T16:16:51.692Z,99.90
2019-02-17T16:19:21.210Z,99.90
2019-02-17T16:21:50.010Z,99.90
2019-02-17T16:24:18.830Z,99.90
2019-02-17T16:26:48.082Z,99.90
2019-02-17T16:29:17.166Z,99.90
2019-02-17T16:31:45.937Z,99.90
2019-02-17T16:34:16.124Z,99.90
2019-02-17T16:36:44.982Z,99.90
2019-02-17T16:39:14.504Z,99.90
2019-02-17T16:41:43.357Z,99.90
2019-02-17T16:44:12.191Z,99.90
2019-02-17T16:46:41.376Z,99.90
2019-02-17T16:49:10.269Z,99.90
2019-02-17T16:51:39.079Z,99.90
2019-02-17T16:54:08.122Z,99.90
2019-02-17T16:56:36.889Z,99.90
2019-02-17T16:59:05.819Z,99.90
2019-02-17T17:01:35.031Z,99.90
2019-02-17T17:04:04.047Z,99.90
2019-02-17T17:06:32.943Z,99.90
2019-02-17T17:09:01.827Z,99.90
2019-02-17T17:11:30.655Z,99.90
2019-02-17T17:13:59.514Z,99.90
2019-02-17T17:16:28.408Z,99.90
2019-02-17T17:18:57.948Z,99.90
2019-02-17T17:21:26.784Z,99.90
2019-02-17T17:23:55.581Z,99.90
2019-02-17T17:26:24.651Z,99.90
2019-02-17T17:28:53.512Z,99.90
2019-02-17T17:31:22.271Z,99.90
2019-02-17T17:33:51.214Z,99.90
2019-02-17T17:36:20.294Z,99.90
2019-02-17T17:38:49.096Z,99.90
2019-02-17T17:41:17.996Z,99.90
2019-02-17T17:43:46.937Z,99.90
2019-02-17T17:46:15.987Z,99.90
2019-02-17T17:48:44.855Z,99.90
2019-02-17T17:51:14.012Z,99.90
2019-02-17T17:53:43.231Z,99.90
2019-02-17T17:56:11.968Z,99.90
2019-02-17T17:58:40.829Z,99.90
2019-02-17T18:01:09.891Z,99.90
2019-02-17T18:03:38.681Z,99.90
2019-02-17T18:06:07.567Z,99.90
2019-02-17T18:08:36.969Z,99.90
2019-02-17T18:11:05.783Z,99.90
2019-02-17T18:13:34.974Z,99.90
2019-02-17T18:16:03.816Z,99.90
2019-02-17T18:18:32.747Z,99.90
2019-02-17T18:21:01.792Z,99.90
2019-02-17T18:23:31.144Z,99.90
2019-02-17T18:25:59.987Z,99.90
2019-02-17T18:28:28.944Z,99.90
2019-02-17T18:30:58.107Z,99.90
2019-02-17T18:33:27.399Z,99.90
2019-02-17T18:35:56.723Z,99.90
2019-02-17T18:38:25.636Z,99.90
2019-02-17T18:40:54.580Z,99.90
2019-02-17T18:43:23.516Z,99.90
2019-02-17T18:45:52.503Z,99.90
2019-02-17T18:48:21.321Z,99.90
2019-02-17T18:50:58.938Z,99.90
2019-02-17T18:53:21.026Z,99.90
2019-02-17T18:55:49.903Z,99.90
2019-02-17T18:58:23.155Z,99.90
2019-02-17T19:00:52.256Z,99.90
2019-02-17T19:03:21.290Z,99.90
2019-02-17T19:05:50.485Z,99.90
2019-02-17T19:08:19.757Z,99.90
2019-02-17T19:10:48.673Z,99.90
2019-02-17T19:13:17.869Z,99.90
2019-02-17T19:15:47.151Z,99.90
2019-02-17T19:18:16.152Z,99.90
2019-02-17T19:20:45.231Z,99.90
2019-02-17T19:23:14.362Z,99.90
2019-02-17T19:25:44.372Z,99.90
2019-02-17T19:28:13.195Z,99.90
2019-02-17T19:30:41.972Z,99.90
2019-02-17T19:33:10.768Z,99.90
2019-02-17T19:35:42.290Z,99.90
2019-02-17T19:38:10.930Z,99.90
2019-02-17T19:40:39.830Z,99.90
2019-02-17T19:43:08.816Z,99.90
2019-02-17T19:45:37.788Z,99.90
2019-02-17T19:48:06.567Z,99.90
2019-02-17T19:50:35.488Z,99.90
2019-02-17T19:53:04.375Z,99.90
2019-02-17T19:55:33.124Z,99.90
2019-02-17T19:58:02.067Z,99.90
2019-02-17T20:00:30.995Z,99.90
2019-02-17T20:03:20.595Z,99.90
2019-02-17T20:05:53.502Z,99.90
2019-02-17T20:08:22.382Z,99.90
2019-02-17T20:10:51.214Z,99.90
2019-02-17T20:13:20.183Z,99.90
2019-02-17T20:15:49.187Z,99.90
2019-02-17T20:18:18.086Z,99.90
2019-02-17T20:20:47.028Z,99.90
2019-02-17T20:23:15.898Z,99.90
2019-02-17T20:25:44.760Z,99.90
2019-02-17T20:28:13.768Z,99.90
2019-02-17T20:30:42.667Z,99.90
2019-02-17T20:33:12.276Z,99.90
2019-02-17T20:35:41.635Z,99.90
2019-02-17T20:38:10.479Z,99.90
2019-02-17T20:40:39.420Z,99.90
2019-02-17T20:43:08.607Z,99.90
2019-02-17T20:45:37.699Z,99.90
2019-02-17T20:48:06.778Z,99.90
2019-02-17T20:50:35.855Z,99.90
2019-02-17T20:53:04.952Z,99.90
2019-02-17T20:55:33.987Z,99.90
2019-02-17T20:58:02.794Z,99.90
2019-02-17T21:00:31.805Z,99.90
2019-02-17T21:03:00.856Z,99.90
2019-02-17T21:05:30.034Z,99.90
2019-02-17T21:07:58.934Z,99.90
2019-02-17T21:10:27.762Z,99.90
2019-02-17T21:12:56.612Z,99.90
2019-02-17T21:15:25.919Z,99.90
2019-02-17T21:17:55.069Z,99.90
2019-02-17T21:20:24.551Z,99.90
2019-02-17T21:22:53.387Z,99.90
2019-02-17T21:25:22.876Z,99.90
2019-02-17T21:27:51.756Z,99.90
2019-02-17T21:30:20.699Z,99.90
2019-02-17T21:32:49.696Z,99.90
2019-02-17T21:35:18.875Z,99.90
2019-02-17T21:37:48.196Z,99.90
2019-02-17T21:40:17.190Z,99.90
2019-02-17T21:42:46.108Z,99.90
2019-02-17T21:45:15.031Z,99.90
2019-02-17T21:47:44.031Z,99.90
2019-02-17T21:50:13.543Z,99.90
2019-02-17T21:52:42.609Z,99.90
2019-02-17T21:55:13.187Z,99.90
2019-02-17T21:57:42.451Z,99.90
2019-02-17T22:00:14.103Z,99.90
2019-02-17T22:02:42.956Z,99.90
2019-02-17T22:05:12.103Z,99.90
2019-02-17T22:07:41.618Z,99.90
2019-02-17T22:10:11.237Z,99.90
2019-02-17T22:12:40.213Z,99.90
2019-02-17T22:15:11.108Z,99.90
2019-02-17T22:17:39.994Z,99.90
2019-02-17T22:20:09.391Z,99.90
2019-02-17T22:22:38.387Z,99.90
2019-02-17T22:25:07.318Z,99.90
2019-02-17T22:27:36.287Z,99.90
2019-02-17T22:30:06.361Z,99.90
2019-02-17T22:32:35.294Z,99.90
2019-02-17T22:35:04.398Z,99.90
2019-02-17T22:37:33.366Z,99.90
2019-02-17T22:40:02.452Z,99.90
2019-02-17T22:42:31.791Z,99.90
2019-02-17T22:45:00.855Z,99.90
2019-02-17T22:47:29.893Z,99.90
2019-02-17T22:49:59.194Z,99.90
2019-02-17T22:52:28.130Z,99.90
2019-02-17T22:54:56.923Z,99.90
2019-02-17T22:57:26.147Z,99.90
2019-02-17T22:59:55.980Z,99.90
2019-02-17T23:02:25.049Z,99.90
2019-02-17T23:04:54.386Z,99.90
2019-02-17T23:07:23.322Z,99.90
2019-02-17T23:09:52.390Z,99.90
2019-02-17T23:12:21.219Z,99.90
2019-02-17T23:14:50.016Z,99.90
2019-02-17T23:17:19.459Z,99.90
2019-02-17T23:19:48.300Z,99.90
2019-02-17T23:22:17.297Z,99.90
2019-02-17T23:24:46.156Z,99.90
2019-02-17T23:27:15.516Z,99.90
2019-02-17T23:29:44.279Z,99.90
2019-02-17T23:32:13.678Z,99.90
2019-02-17T23:34:42.416Z,99.90
2019-02-17T23:37:11.288Z,99.90
2019-02-17T23:39:40.196Z,99.90
2019-02-17T23:42:09.063Z,99.90
2019-02-17T23:44:38.054Z,99.90
2019-02-17T23:47:07.379Z,99.90
2019-02-17T23:49:36.190Z,99.90
2019-02-17T23:52:05.121Z,99.90
2019-02-17T23:54:34.507Z,99.90
2019-02-17T23:57:03.463Z,99.90
2019-02-17T23:59:32.994Z,99.90
